Time;durP1;ratioP1;P1;durP2;ratioP2;P2;SDS_P1;SDS_P2;PMS_P1;PMS_P2;Temp;Humidity;BMP_temperature;BMP_pressure;BME280_temperature;BME280_humidity;BME280_pressure;Samples;Min_cycle;Max_cycle;Signal;HPM_P1;HPM_P2
2022/07/20 00:00:37;;;;;;;8.15;6.90;;;;;;;;;;5043078;28;20037;-70
2022/07/20 00:03:08;;;;;;;9.55;7.07;;;;;;;;;;5045105;28;20094;-70
2022/07/20 00:05:34;;;;;;;8.90;6.75;;;;;;;;;;5047115;28;20040;-70
2022/07/20 00:08:00;;;;;;;7.43;6.72;;;;;;;;;;5044997;28;20420;-69
2022/07/20 00:13:11;;;;;;;8.35;7.10;;;;;;;;;;5045410;28;20389;-70
2022/07/20 00:15:37;;;;;;;6.72;6.13;;;;;;;;;;5046244;28;20060;-69
2022/07/20 00:18:03;;;;;;;10.05;6.53;;;;;;;;;;5046337;28;20471;-70
2022/07/20 00:20:29;;;;;;;8.35;6.30;;;;;;;;;;5044240;28;20029;-70
2022/07/20 00:22:56;;;;;;;7.22;6.45;;;;;;;;;;5043890;28;20040;-69
2022/07/20 00:25:22;;;;;;;7.00;6.32;;;;;;;;;;5045223;28;20032;-70
2022/07/20 00:27:48;;;;;;;6.75;6.13;;;;;;;;;;5043154;28;20044;-69
2022/07/20 00:30:14;;;;;;;8.20;6.15;;;;;;;;;;5039236;28;20029;-70
2022/07/20 00:32:40;;;;;;;11.98;6.85;;;;;;;;;;5045531;28;20875;-70
2022/07/20 00:35:08;;;;;;;7.35;6.38;;;;;;;;;;5046195;28;20033;-69
2022/07/20 00:37:33;;;;;;;7.68;6.55;;;;;;;;;;5046246;28;20106;-69
2022/07/20 00:39:59;;;;;;;10.10;6.70;;;;;;;;;;5043353;28;20497;-70
2022/07/20 00:42:25;;;;;;;7.10;6.35;;;;;;;;;;5043902;28;20068;-69
2022/07/20 00:44:51;;;;;;;6.85;5.72;;;;;;;;;;5044485;28;20032;-69
2022/07/20 00:47:17;;;;;;;11.52;6.53;;;;;;;;;;5043127;28;20150;-70
2022/07/20 00:49:43;;;;;;;8.48;6.15;;;;;;;;;;5045169;28;20068;-70
2022/07/20 00:52:09;;;;;;;8.43;6.25;;;;;;;;;;5043111;28;20076;-70
2022/07/20 00:54:35;;;;;;;8.60;6.35;;;;;;;;;;5046038;28;20025;-69
2022/07/20 00:57:01;;;;;;;8.68;6.20;;;;;;;;;;5038775;28;20040;-69
2022/07/20 00:59:27;;;;;;;7.38;6.28;;;;;;;;;;5044014;28;20471;-70
2022/07/20 01:01:53;;;;;;;7.80;6.10;;;;;;;;;;5041697;28;20064;-70
2022/07/20 01:04:19;;;;;;;7.75;6.45;;;;;;;;;;5043606;28;20033;-69
2022/07/20 01:06:45;;;;;;;7.80;6.22;;;;;;;;;;5045486;28;20032;-69
2022/07/20 01:09:10;;;;;;;8.45;5.90;;;;;;;;;;5043830;28;20481;-69
2022/07/20 01:11:36;;;;;;;7.78;6.05;;;;;;;;;;5043744;28;20044;-69
2022/07/20 01:14:06;;;;;;;6.53;5.82;;;;;;;;;;5035687;28;20545;-68
2022/07/20 01:16:33;;;;;;;8.18;5.80;;;;;;;;;;5044643;28;20062;-67
2022/07/20 01:18:59;;;;;;;6.40;5.80;;;;;;;;;;5038667;28;20033;-68
2022/07/20 01:21:25;;;;;;;6.55;5.95;;;;;;;;;;5043008;28;20033;-68
2022/07/20 01:23:51;;;;;;;7.65;5.93;;;;;;;;;;5038702;28;20049;-68
2022/07/20 01:26:18;;;;;;;7.97;5.80;;;;;;;;;;5044558;28;20043;-70
2022/07/20 01:28:44;;;;;;;8.05;6.28;;;;;;;;;;5038570;28;20040;-69
2022/07/20 01:31:10;;;;;;;8.10;6.68;;;;;;;;;;5041494;28;20417;-70
2022/07/20 01:33:36;;;;;;;7.50;6.68;;;;;;;;;;5044254;28;20039;-70
2022/07/20 01:36:02;;;;;;;9.13;6.38;;;;;;;;;;5043852;28;20041;-70
2022/07/20 01:38:27;;;;;;;7.68;6.45;;;;;;;;;;5038268;28;20056;-69
2022/07/20 01:40:53;;;;;;;7.82;6.68;;;;;;;;;;5043848;28;20033;-68
2022/07/20 01:43:19;;;;;;;10.95;6.78;;;;;;;;;;5044790;28;20040;-70
2022/07/20 01:45:44;;;;;;;7.18;6.47;;;;;;;;;;5040961;28;20628;-70
2022/07/20 01:48:10;;;;;;;6.80;6.20;;;;;;;;;;5036947;28;20061;-69
2022/07/20 01:50:38;;;;;;;11.57;6.22;;;;;;;;;;5040876;28;20037;-69
2022/07/20 01:53:04;;;;;;;8.25;6.45;;;;;;;;;;5036926;28;20067;-70
2022/07/20 01:55:30;;;;;;;10.23;6.60;;;;;;;;;;5034579;28;20033;-69
2022/07/20 01:57:56;;;;;;;7.22;6.47;;;;;;;;;;5042859;28;20058;-70
2022/07/20 02:00:21;;;;;;;9.18;7.00;;;;;;;;;;5042580;28;20028;-70
2022/07/20 02:02:48;;;;;;;8.30;6.30;;;;;;;;;;5044343;28;20044;-69
2022/07/20 02:05:14;;;;;;;6.63;5.88;;;;;;;;;;5041626;28;20043;-69
2022/07/20 02:07:39;;;;;;;7.28;6.25;;;;;;;;;;5046374;28;20108;-69
2022/07/20 02:10:07;;;;;;;6.95;6.35;;;;;;;;;;5041876;28;20076;-70
2022/07/20 02:12:33;;;;;;;7.15;6.55;;;;;;;;;;5045878;28;20048;-72
2022/07/20 02:14:58;;;;;;;7.45;6.68;;;;;;;;;;5038971;28;20037;-69
2022/07/20 02:17:24;;;;;;;8.02;6.47;;;;;;;;;;5042602;28;20100;-69
2022/07/20 02:19:50;;;;;;;7.15;6.28;;;;;;;;;;5045757;28;20033;-70
2022/07/20 02:22:15;;;;;;;7.90;6.82;;;;;;;;;;5041265;28;20616;-70
2022/07/20 02:24:41;;;;;;;7.60;6.90;;;;;;;;;;5037369;28;20033;-70
2022/07/20 02:27:06;;;;;;;9.15;6.57;;;;;;;;;;5041794;28;20089;-69
2022/07/20 02:29:32;;;;;;;8.43;6.93;;;;;;;;;;5043731;28;20037;-69
2022/07/20 02:31:57;;;;;;;9.35;6.85;;;;;;;;;;5040069;28;20536;-69
2022/07/20 02:34:23;;;;;;;7.95;6.38;;;;;;;;;;5037609;28;20484;-70
2022/07/20 02:36:49;;;;;;;7.53;6.75;;;;;;;;;;5040094;28;20038;-70
2022/07/20 02:39:14;;;;;;;7.47;6.78;;;;;;;;;;5043992;28;20385;-69
2022/07/20 02:41:40;;;;;;;8.60;6.50;;;;;;;;;;5039491;28;20060;-70
2022/07/20 02:44:06;;;;;;;9.68;6.93;;;;;;;;;;5032527;28;20488;-70
2022/07/20 02:46:31;;;;;;;8.32;6.90;;;;;;;;;;5039439;28;20040;-69
2022/07/20 02:48:57;;;;;;;7.93;7.18;;;;;;;;;;5041041;28;20040;-70
2022/07/20 02:51:22;;;;;;;7.63;6.93;;;;;;;;;;5040498;28;20075;-69
2022/07/20 02:53:48;;;;;;;9.77;7.20;;;;;;;;;;5042236;28;20033;-69
2022/07/20 02:56:13;;;;;;;9.27;7.03;;;;;;;;;;5038855;28;20033;-69
2022/07/20 02:58:39;;;;;;;8.20;7.40;;;;;;;;;;5042924;28;20033;-70
2022/07/20 03:01:04;;;;;;;10.15;7.10;;;;;;;;;;5037684;28;20035;-69
2022/07/20 03:03:30;;;;;;;7.63;6.80;;;;;;;;;;5041169;28;20033;-70
2022/07/20 03:05:56;;;;;;;7.50;6.70;;;;;;;;;;5045200;28;20039;-70
2022/07/20 03:08:22;;;;;;;8.23;6.78;;;;;;;;;;5044112;28;20546;-68
2022/07/20 03:10:47;;;;;;;8.45;6.93;;;;;;;;;;5041426;28;20033;-70
2022/07/20 03:13:13;;;;;;;10.02;7.30;;;;;;;;;;5048541;28;20783;-70
2022/07/20 03:15:38;;;;;;;8.15;7.18;;;;;;;;;;5045256;28;20036;-70
2022/07/20 03:18:04;;;;;;;8.15;7.20;;;;;;;;;;5042189;28;20044;-69
2022/07/20 03:20:32;;;;;;;8.02;6.80;;;;;;;;;;5045901;28;20504;-69
2022/07/20 03:22:58;;;;;;;10.25;7.20;;;;;;;;;;5046226;28;20056;-69
2022/07/20 03:25:24;;;;;;;9.10;7.53;;;;;;;;;;5048608;28;20068;-68
2022/07/20 03:27:57;;;;;;;12.18;7.70;;;;;;;;;;5039938;28;20033;-66
2022/07/20 03:30:24;;;;;;;10.55;7.57;;;;;;;;;;5037174;28;20120;-67
2022/07/20 03:32:50;;;;;;;9.10;7.72;;;;;;;;;;5034984;28;20033;-67
2022/07/20 03:35:16;;;;;;;8.45;7.60;;;;;;;;;;5042463;28;20130;-68
2022/07/20 03:37:42;;;;;;;10.13;7.55;;;;;;;;;;5039199;28;20036;-68
2022/07/20 03:40:07;;;;;;;11.30;7.22;;;;;;;;;;5040596;28;20481;-68
2022/07/20 03:42:34;;;;;;;9.02;7.22;;;;;;;;;;5037844;28;20058;-68
2022/07/20 03:45:00;;;;;;;9.10;7.30;;;;;;;;;;5038833;28;20030;-68
2022/07/20 03:47:26;;;;;;;7.93;6.80;;;;;;;;;;5035840;28;20041;-68
2022/07/20 03:49:52;;;;;;;9.70;7.13;;;;;;;;;;5037908;28;20127;-68
2022/07/20 03:52:19;;;;;;;9.55;7.10;;;;;;;;;;5040067;28;20044;-68
2022/07/20 03:54:45;;;;;;;9.43;7.38;;;;;;;;;;5039623;28;20029;-68
2022/07/20 03:57:11;;;;;;;11.02;7.35;;;;;;;;;;5038358;28;20047;-67
2022/07/20 03:59:36;;;;;;;8.40;7.50;;;;;;;;;;5039134;28;20430;-67
2022/07/20 04:02:03;;;;;;;8.57;7.30;;;;;;;;;;5037257;28;20032;-67
2022/07/20 04:04:28;;;;;;;8.75;7.13;;;;;;;;;;5037052;28;20108;-67
2022/07/20 04:06:55;;;;;;;8.82;7.50;;;;;;;;;;5042192;28;20131;-68
2022/07/20 04:12:07;;;;;;;11.60;7.40;;;;;;;;;;5038994;28;20038;-67
2022/07/20 04:14:33;;;;;;;10.13;7.57;;;;;;;;;;5038745;28;20040;-67
2022/07/20 04:16:58;;;;;;;7.97;7.18;;;;;;;;;;5041067;28;20041;-67
2022/07/20 04:19:24;;;;;;;9.50;8.00;;;;;;;;;;5040217;28;20070;-66
2022/07/20 04:21:49;;;;;;;9.77;8.00;;;;;;;;;;5038483;28;20036;-65
2022/07/20 04:24:15;;;;;;;10.20;7.78;;;;;;;;;;5039083;28;20037;-65
2022/07/20 04:26:41;;;;;;;12.25;7.57;;;;;;;;;;5041248;28;20489;-65
2022/07/20 04:29:06;;;;;;;8.60;7.70;;;;;;;;;;5039703;28;20044;-65
2022/07/20 04:31:32;;;;;;;9.75;7.78;;;;;;;;;;5039776;28;20103;-66
2022/07/20 04:33:58;;;;;;;9.68;7.78;;;;;;;;;;5038787;28;20033;-66
2022/07/20 04:36:23;;;;;;;12.40;7.53;;;;;;;;;;5042535;28;20040;-65
2022/07/20 04:38:49;;;;;;;8.60;7.70;;;;;;;;;;5042947;28;20460;-64
2022/07/20 04:41:15;;;;;;;9.05;8.15;;;;;;;;;;5037685;28;20043;-65
2022/07/20 04:43:40;;;;;;;10.38;7.78;;;;;;;;;;5034770;28;20037;-65
2022/07/20 04:46:06;;;;;;;8.10;7.40;;;;;;;;;;5040782;28;20745;-65
2022/07/20 04:48:31;;;;;;;8.82;7.70;;;;;;;;;;5038741;28;20033;-65
2022/07/20 04:50:57;;;;;;;10.10;7.65;;;;;;;;;;5037877;28;20064;-65
2022/07/20 04:53:23;;;;;;;10.75;8.40;;;;;;;;;;5034437;28;20072;-65
2022/07/20 04:55:48;;;;;;;12.80;8.15;;;;;;;;;;5042125;28;20060;-66
2022/07/20 04:58:14;;;;;;;8.48;7.38;;;;;;;;;;5041112;28;20028;-65
2022/07/20 05:00:39;;;;;;;12.02;7.80;;;;;;;;;;5033738;28;20025;-65
2022/07/20 05:03:05;;;;;;;8.75;7.88;;;;;;;;;;5036616;28;20520;-65
2022/07/20 05:05:31;;;;;;;9.23;8.30;;;;;;;;;;5039336;28;20034;-65
2022/07/20 05:07:56;;;;;;;8.98;8.05;;;;;;;;;;5040878;28;20056;-64
2022/07/20 05:10:22;;;;;;;10.75;8.60;;;;;;;;;;5030736;28;20021;-64
2022/07/20 05:12:48;;;;;;;9.30;8.40;;;;;;;;;;5040030;28;20032;-64
2022/07/20 05:15:14;;;;;;;11.32;8.50;;;;;;;;;;5034659;28;20128;-63
2022/07/20 05:17:39;;;;;;;12.40;8.23;;;;;;;;;;5040215;28;20033;-65
2022/07/20 05:20:05;;;;;;;9.45;8.30;;;;;;;;;;5037915;28;20116;-65
2022/07/20 05:22:31;;;;;;;9.43;8.02;;;;;;;;;;5035828;28;20033;-65
2022/07/20 05:24:56;;;;;;;10.43;7.78;;;;;;;;;;5037050;28;20032;-65
2022/07/20 05:27:22;;;;;;;10.50;8.32;;;;;;;;;;5040480;28;20036;-69
2022/07/20 05:29:48;;;;;;;13.30;8.15;;;;;;;;;;5039560;28;20091;-68
2022/07/20 05:32:14;;;;;;;9.65;8.68;;;;;;;;;;5037804;28;20040;-69
2022/07/20 05:34:39;;;;;;;14.40;8.43;;;;;;;;;;5038996;28;20028;-69
2022/07/20 05:37:05;;;;;;;13.00;8.40;;;;;;;;;;5033833;28;20060;-69
2022/07/20 05:39:31;;;;;;;9.20;8.20;;;;;;;;;;5040582;28;20775;-69
2022/07/20 05:41:56;;;;;;;13.38;8.40;;;;;;;;;;5036233;28;20037;-69
2022/07/20 05:44:22;;;;;;;9.55;8.57;;;;;;;;;;5040282;28;20036;-69
2022/07/20 05:46:47;;;;;;;12.18;8.73;;;;;;;;;;5033948;28;20067;-69
2022/07/20 05:49:13;;;;;;;10.60;8.27;;;;;;;;;;5040459;28;20103;-69
2022/07/20 05:51:38;;;;;;;8.93;8.05;;;;;;;;;;5034901;28;20519;-68
2022/07/20 05:54:04;;;;;;;9.40;8.40;;;;;;;;;;5040598;28;20029;-69
2022/07/20 05:56:31;;;;;;;16.60;8.57;;;;;;;;;;5035542;28;20037;-69
2022/07/20 05:58:56;;;;;;;9.98;8.27;;;;;;;;;;5038324;28;20072;-69
2022/07/20 06:01:22;;;;;;;11.38;9.13;;;;;;;;;;5041359;28;20041;-69
2022/07/20 06:03:48;;;;;;;10.75;8.60;;;;;;;;;;5038435;28;20035;-69
2022/07/20 06:06:13;;;;;;;11.43;8.45;;;;;;;;;;5035291;28;20037;-69
2022/07/20 06:08:39;;;;;;;11.48;8.63;;;;;;;;;;5037484;28;20631;-69
2022/07/20 06:11:04;;;;;;;10.57;8.80;;;;;;;;;;5035233;28;20037;-69
2022/07/20 06:13:30;;;;;;;13.48;8.90;;;;;;;;;;5037196;28;20036;-69
2022/07/20 06:15:56;;;;;;;11.57;8.35;;;;;;;;;;5040091;28;20044;-68
2022/07/20 06:18:23;;;;;;;10.55;8.00;;;;;;;;;;5038271;28;20039;-69
2022/07/20 06:20:48;;;;;;;14.57;8.60;;;;;;;;;;5041690;28;20473;-69
2022/07/20 06:23:14;;;;;;;13.75;8.45;;;;;;;;;;5035749;28;20043;-69
2022/07/20 06:25:39;;;;;;;14.45;8.93;;;;;;;;;;5041591;28;20051;-69
2022/07/20 06:28:05;;;;;;;11.82;8.70;;;;;;;;;;5033604;28;20064;-69
2022/07/20 06:30:31;;;;;;;10.70;9.60;;;;;;;;;;5041626;28;20045;-69
2022/07/20 06:32:56;;;;;;;9.20;8.23;;;;;;;;;;5038803;28;20094;-69
2022/07/20 06:35:22;;;;;;;12.20;8.80;;;;;;;;;;5042523;28;20401;-69
2022/07/20 06:37:48;;;;;;;11.40;8.43;;;;;;;;;;5036096;28;20045;-69
2022/07/20 06:40:14;;;;;;;15.55;8.77;;;;;;;;;;5039217;28;20112;-69
2022/07/20 06:42:39;;;;;;;14.38;8.27;;;;;;;;;;5038289;28;20033;-69
2022/07/20 06:45:05;;;;;;;14.75;8.52;;;;;;;;;;5035567;28;20108;-69
2022/07/20 06:47:31;;;;;;;12.10;8.60;;;;;;;;;;5040495;28;20040;-69
2022/07/20 06:49:57;;;;;;;10.32;8.70;;;;;;;;;;5043478;28;20064;-69
2022/07/20 06:52:22;;;;;;;9.77;8.35;;;;;;;;;;5040279;28;20037;-70
2022/07/20 06:54:48;;;;;;;12.30;8.77;;;;;;;;;;5042128;28;20411;-70
2022/07/20 06:57:14;;;;;;;12.38;8.07;;;;;;;;;;5043130;28;20052;-70
2022/07/20 06:59:40;;;;;;;11.70;8.32;;;;;;;;;;5039678;28;20084;-69
2022/07/20 07:02:05;;;;;;;8.98;7.50;;;;;;;;;;5036922;28;20040;-69
2022/07/20 07:04:31;;;;;;;10.60;7.75;;;;;;;;;;5040864;28;20388;-70
2022/07/20 07:06:58;;;;;;;10.18;7.90;;;;;;;;;;5042246;28;20035;-69
2022/07/20 07:09:25;;;;;;;15.40;8.05;;;;;;;;;;5036909;28;20048;-70
2022/07/20 07:11:50;;;;;;;10.48;7.95;;;;;;;;;;5043312;28;20029;-69
2022/07/20 07:14:16;;;;;;;9.32;7.70;;;;;;;;;;5036406;28;20036;-69
2022/07/20 07:16:41;;;;;;;15.43;8.20;;;;;;;;;;5044934;28;20039;-70
2022/07/20 07:19:07;;;;;;;16.20;7.97;;;;;;;;;;5040423;28;20052;-69
2022/07/20 07:21:33;;;;;;;9.73;8.23;;;;;;;;;;5043114;28;20508;-69
2022/07/20 07:23:59;;;;;;;9.05;7.63;;;;;;;;;;5038184;28;20462;-68
2022/07/20 07:26:24;;;;;;;11.07;8.05;;;;;;;;;;5043629;28;20082;-70
2022/07/20 07:28:50;;;;;;;8.18;6.85;;;;;;;;;;5041928;28;20083;-70
2022/07/20 07:31:17;;;;;;;11.80;8.05;;;;;;;;;;5043032;28;20052;-70
2022/07/20 07:33:44;;;;;;;10.60;7.80;;;;;;;;;;5036839;28;20551;-70
2022/07/20 07:36:10;;;;;;;12.82;8.32;;;;;;;;;;5039472;28;20041;-69
2022/07/20 07:38:36;;;;;;;11.02;8.05;;;;;;;;;;5041653;28;20060;-70
2022/07/20 07:41:01;;;;;;;9.50;7.50;;;;;;;;;;5039223;28;20336;-71
2022/07/20 07:43:27;;;;;;;10.55;7.97;;;;;;;;;;5042296;28;20044;-70
2022/07/20 07:45:53;;;;;;;9.77;7.80;;;;;;;;;;5039766;28;20040;-70
2022/07/20 07:48:19;;;;;;;9.27;7.22;;;;;;;;;;5042924;28;20558;-70
2022/07/20 07:50:45;;;;;;;8.88;7.95;;;;;;;;;;5036373;28;20044;-70
2022/07/20 07:53:11;;;;;;;8.30;7.35;;;;;;;;;;5040199;28;20029;-69
2022/07/20 07:55:40;;;;;;;13.15;7.53;;;;;;;;;;5039806;28;20043;-70
2022/07/20 07:58:09;;;;;;;9.40;7.35;;;;;;;;;;5042232;28;20037;-69
2022/07/20 08:00:35;;;;;;;;;;;;;;;;;;5039069;28;20033;-67
2022/07/20 08:03:01;;;;;;;14.93;8.25;;;;;;;;;;5040470;28;20293;-69
2022/07/20 08:05:26;;;;;;;13.65;7.32;;;;;;;;;;5037462;28;20037;-70
2022/07/20 08:07:52;;;;;;;10.00;7.13;;;;;;;;;;5040488;28;20040;-70
2022/07/20 08:10:18;;;;;;;10.35;7.68;;;;;;;;;;5041250;28;20513;-70
2022/07/20 08:12:43;;;;;;;13.25;7.63;;;;;;;;;;5040926;28;20047;-70
2022/07/20 08:15:10;;;;;;;11.52;6.97;;;;;;;;;;5038004;28;20051;-70
2022/07/20 08:17:36;;;;;;;13.48;7.50;;;;;;;;;;5039255;28;20029;-70
2022/07/20 08:20:06;;;;;;;8.55;7.65;;;;;;;;;;5035969;28;20029;-70
2022/07/20 08:22:33;;;;;;;13.75;7.57;;;;;;;;;;5038817;28;20067;-70
2022/07/20 08:24:59;;;;;;;14.05;7.68;;;;;;;;;;5042094;28;20519;-70
2022/07/20 08:27:25;;;;;;;11.55;7.40;;;;;;;;;;5038702;28;20099;-70
2022/07/20 08:29:52;;;;;;;7.82;7.03;;;;;;;;;;5039045;28;20496;-68
2022/07/20 08:32:18;;;;;;;12.97;7.10;;;;;;;;;;5041942;28;20040;-70
2022/07/20 08:34:43;;;;;;;11.45;7.82;;;;;;;;;;5044335;28;20045;-68
2022/07/20 08:37:09;;;;;;;8.70;7.03;;;;;;;;;;5038783;28;20423;-69
2022/07/20 08:39:35;;;;;;;9.68;6.82;;;;;;;;;;5043516;28;20025;-69
2022/07/20 08:42:01;;;;;;;12.65;7.20;;;;;;;;;;5039109;28;20043;-68
2022/07/20 08:44:26;;;;;;;11.18;6.95;;;;;;;;;;5041831;28;20115;-69
2022/07/20 08:46:54;;;;;;;8.88;7.72;;;;;;;;;;5039937;28;20119;-68
2022/07/20 08:49:20;;;;;;;8.10;7.22;;;;;;;;;;5039335;28;20060;-69
2022/07/20 08:51:46;;;;;;;9.23;7.82;;;;;;;;;;5037326;28;20537;-69
2022/07/20 08:54:12;;;;;;;11.35;7.35;;;;;;;;;;5039951;28;20112;-69
2022/07/20 08:56:37;;;;;;;15.20;7.03;;;;;;;;;;5036974;28;20033;-69
2022/07/20 08:59:03;;;;;;;8.48;7.45;;;;;;;;;;5040776;28;20091;-69
2022/07/20 09:01:29;;;;;;;7.82;6.90;;;;;;;;;;5043745;28;20358;-69
2022/07/20 09:04:09;;;;;;;8.88;7.13;;;;;;;;;;5040709;28;20104;-69
2022/07/20 09:06:43;;;;;;;11.75;7.45;;;;;;;;;;5038622;28;20564;-69
2022/07/20 09:09:09;;;;;;;10.77;7.40;;;;;;;;;;5039874;28;20040;-69
2022/07/20 09:11:35;;;;;;;10.95;6.70;;;;;;;;;;5042811;28;20280;-69
2022/07/20 09:14:00;;;;;;;10.50;7.20;;;;;;;;;;5036427;28;20043;-69
2022/07/20 09:16:36;;;;;;;8.70;6.70;;;;;;;;;;5042698;28;20025;-69
2022/07/20 09:19:03;;;;;;;9.63;6.97;;;;;;;;;;5031554;28;20397;-69
2022/07/20 09:21:31;;;;;;;10.02;7.72;;;;;;;;;;5041693;28;20468;-69
2022/07/20 09:24:05;;;;;;;9.52;6.68;;;;;;;;;;5038264;28;20339;-69
2022/07/20 09:26:32;;;;;;;9.38;6.72;;;;;;;;;;5042429;28;20101;-69
2022/07/20 09:29:00;;;;;;;13.50;6.90;;;;;;;;;;5039596;28;20041;-68
2022/07/20 09:31:37;;;;;;;10.05;6.95;;;;;;;;;;5036277;28;20549;-69
2022/07/20 09:34:04;;;;;;;7.90;7.07;;;;;;;;;;5039505;28;20039;-69
2022/07/20 09:36:35;;;;;;;7.63;6.72;;;;;;;;;;5039536;28;20280;-69
2022/07/20 09:39:10;;;;;;;10.18;6.82;;;;;;;;;;5038410;28;20040;-69
2022/07/20 09:41:39;;;;;;;8.18;6.53;;;;;;;;;;5035409;28;20108;-69
2022/07/20 09:44:06;;;;;;;7.70;6.97;;;;;;;;;;5038737;28;20041;-69
2022/07/20 09:46:34;;;;;;;7.28;6.57;;;;;;;;;;5036964;28;20490;-69
2022/07/20 09:49:04;;;;;;;8.85;6.65;;;;;;;;;;5038465;28;20152;-69
2022/07/20 09:51:35;;;;;;;12.02;6.50;;;;;;;;;;5039312;28;20036;-72
2022/07/20 09:54:05;;;;;;;9.98;7.00;;;;;;;;;;5036553;28;20033;-70
2022/07/20 09:56:31;;;;;;;10.02;7.70;;;;;;;;;;5040991;28;20036;-69
2022/07/20 09:58:58;;;;;;;8.88;7.60;;;;;;;;;;5042244;28;20029;-69
2022/07/20 10:01:27;;;;;;;10.80;7.30;;;;;;;;;;5042704;28;20072;-69
2022/07/20 10:03:54;;;;;;;7.55;6.88;;;;;;;;;;5035265;28;20120;-69
2022/07/20 10:06:22;;;;;;;8.45;7.10;;;;;;;;;;5036275;28;20033;-70
2022/07/20 10:08:49;;;;;;;;;;;;;;;;;;5034799;28;20033;-69
2022/07/20 10:11:17;;;;;;;13.20;6.90;;;;;;;;;;5036781;28;19928;-69
2022/07/20 10:13:44;;;;;;;9.18;6.97;;;;;;;;;;5037485;28;20124;-69
2022/07/20 10:16:20;;;;;;;11.93;7.03;;;;;;;;;;5041101;28;20036;-69
2022/07/20 10:18:47;;;;;;;12.70;7.50;;;;;;;;;;5040059;28;20040;-69
2022/07/20 10:21:33;;;;;;;11.07;7.38;;;;;;;;;;5040566;28;20033;-69
2022/07/20 10:24:29;;;;;;;9.73;7.40;;;;;;;;;;5040204;28;20393;-69
2022/07/20 10:27:06;;;;;;;10.25;7.05;;;;;;;;;;5035363;28;20774;-70
2022/07/20 10:29:39;;;;;;;8.23;6.90;;;;;;;;;;5040420;28;20029;-69
2022/07/20 10:32:32;;;;;;;13.50;7.28;;;;;;;;;;5033342;28;20034;-69
2022/07/20 10:35:00;;;;;;;8.77;7.78;;;;;;;;;;5034870;28;20400;-69
2022/07/20 10:37:38;;;;;;;12.15;7.53;;;;;;;;;;5037324;28;20124;-69
2022/07/20 10:40:13;;;;;;;8.77;7.03;;;;;;;;;;5034601;28;20168;-69
2022/07/20 10:42:43;;;;;;;9.82;7.15;;;;;;;;;;5037865;28;20044;-69
2022/07/20 10:45:14;;;;;;;11.13;7.13;;;;;;;;;;5034611;28;20037;-69
2022/07/20 10:47:43;;;;;;;8.65;6.72;;;;;;;;;;5037201;28;20053;-70
2022/07/20 10:50:11;;;;;;;8.77;7.18;;;;;;;;;;5034566;28;20060;-69
2022/07/20 10:52:36;;;;;;;7.68;6.93;;;;;;;;;;5030573;28;20047;-69
2022/07/20 10:55:04;;;;;;;9.73;7.30;;;;;;;;;;5036818;28;20045;-69
2022/07/20 10:57:31;;;;;;;11.82;6.70;;;;;;;;;;5044643;28;20388;-70
2022/07/20 11:00:03;;;;;;;8.45;6.43;;;;;;;;;;5039061;28;20029;-69
2022/07/20 11:02:32;;;;;;;10.35;7.20;;;;;;;;;;5045009;28;20093;-70
2022/07/20 11:04:58;;;;;;;8.00;6.43;;;;;;;;;;5034158;28;20496;-72
2022/07/20 11:07:32;;;;;;;11.00;6.95;;;;;;;;;;5033688;28;20053;-69
2022/07/20 11:10:00;;;;;;;8.07;7.00;;;;;;;;;;5036429;28;20037;-69
2022/07/20 11:12:27;;;;;;;;;;;;;;;;;;5035760;28;20040;-69
2022/07/20 11:14:54;;;;;;;8.45;5.90;;;;;;;;;;5032839;28;20011;-69
2022/07/20 11:17:20;;;;;;;9.00;7.43;;;;;;;;;;5036624;28;20033;-69
2022/07/20 11:19:46;;;;;;;9.55;6.65;;;;;;;;;;5037232;28;20045;-69
2022/07/20 11:22:12;;;;;;;11.38;7.15;;;;;;;;;;5033021;28;20037;-69
2022/07/20 11:24:37;;;;;;;7.32;6.60;;;;;;;;;;5039211;28;21033;-69
2022/07/20 11:27:16;;;;;;;10.88;6.13;;;;;;;;;;5032771;28;20029;-69
2022/07/20 11:29:51;;;;;;;11.82;6.80;;;;;;;;;;5031378;28;20048;-69
2022/07/20 11:32:17;;;;;;;7.53;6.80;;;;;;;;;;5031301;28;20454;-70
2022/07/20 11:34:53;;;;;;;11.63;6.65;;;;;;;;;;5034478;28;20049;-69
2022/07/20 11:37:21;;;;;;;9.65;6.93;;;;;;;;;;5034818;28;20501;-69
2022/07/20 11:39:47;;;;;;;8.18;6.88;;;;;;;;;;5039632;28;20235;-69
2022/07/20 11:42:15;;;;;;;9.35;6.82;;;;;;;;;;5040000;28;20040;-69
2022/07/20 11:44:42;;;;;;;9.35;6.93;;;;;;;;;;5039835;28;20359;-70
2022/07/20 11:47:08;;;;;;;8.50;6.88;;;;;;;;;;5038127;28;20048;-70
2022/07/20 11:49:34;;;;;;;7.80;7.07;;;;;;;;;;5028895;28;20036;-69
2022/07/20 11:52:05;;;;;;;8.23;6.78;;;;;;;;;;5037216;28;20045;-69
2022/07/20 11:54:40;;;;;;;8.55;6.68;;;;;;;;;;5041507;28;20044;-71
2022/07/20 11:57:06;;;;;;;10.85;7.38;;;;;;;;;;5039784;28;20032;-69
2022/07/20 11:59:33;;;;;;;11.63;7.00;;;;;;;;;;5036049;28;20056;-69
2022/07/20 12:02:00;;;;;;;7.38;6.78;;;;;;;;;;5040496;28;20475;-71
2022/07/20 12:04:27;;;;;;;8.30;6.47;;;;;;;;;;5038719;28;20071;-69
2022/07/20 12:06:55;;;;;;;7.88;6.60;;;;;;;;;;5039969;28;20039;-68
2022/07/20 12:09:32;;;;;;;8.75;6.35;;;;;;;;;;5040437;28;20044;-69
2022/07/20 12:12:06;;;;;;;;;;;;;;;;;;5043598;28;20043;-69
2022/07/20 12:14:35;;;;;;;12.75;7.10;;;;;;;;;;5038805;28;19917;-69
2022/07/20 12:17:13;;;;;;;10.68;7.07;;;;;;;;;;5038906;28;20041;-71
2022/07/20 12:19:40;;;;;;;;;;;;;;;;;;5036391;28;20036;-69
2022/07/20 12:22:05;;;;;;;7.68;6.82;;;;;;;;;;5036101;28;19921;-68
2022/07/20 12:24:50;;;;;;;7.82;7.00;;;;;;;;;;5037714;28;20086;-68
2022/07/20 12:27:16;;;;;;;11.05;7.43;;;;;;;;;;5035806;28;20041;-71
2022/07/20 12:29:42;;;;;;;8.80;7.30;;;;;;;;;;5040958;28;20047;-69
2022/07/20 12:32:08;;;;;;;8.73;7.72;;;;;;;;;;5032266;28;20412;-71
2022/07/20 12:34:53;;;;;;;8.10;7.30;;;;;;;;;;5041913;28;20122;-68
2022/07/20 12:37:20;;;;;;;8.43;7.03;;;;;;;;;;5036724;28;20082;-68
2022/07/20 12:39:53;;;;;;;10.50;7.00;;;;;;;;;;5040822;28;20415;-69
2022/07/20 12:42:26;;;;;;;7.47;6.82;;;;;;;;;;5035516;28;20598;-68
2022/07/20 12:45:01;;;;;;;9.18;7.30;;;;;;;;;;5038079;28;20033;-69
2022/07/20 12:47:26;;;;;;;9.10;7.18;;;;;;;;;;5036547;28;20033;-69
2022/07/20 12:49:53;;;;;;;11.32;7.30;;;;;;;;;;5040225;28;20051;-70
2022/07/20 12:52:18;;;;;;;12.27;6.88;;;;;;;;;;5037101;28;20033;-70
2022/07/20 12:54:44;;;;;;;10.23;7.07;;;;;;;;;;5033564;28;20477;-69
2022/07/20 12:57:10;;;;;;;7.68;6.88;;;;;;;;;;5038131;28;20037;-70
2022/07/20 12:59:35;;;;;;;10.55;7.35;;;;;;;;;;5034906;28;20488;-70
2022/07/20 13:02:01;;;;;;;7.75;7.05;;;;;;;;;;5037223;28;20028;-70
2022/07/20 13:04:26;;;;;;;9.15;6.78;;;;;;;;;;5033021;28;20072;-70
2022/07/20 13:06:54;;;;;;;7.15;6.45;;;;;;;;;;5038744;28;20443;-69
2022/07/20 13:09:22;;;;;;;7.80;6.93;;;;;;;;;;5033117;28;20041;-70
2022/07/20 13:11:48;;;;;;;9.93;7.65;;;;;;;;;;5039906;28;20123;-69
2022/07/20 13:14:19;;;;;;;14.70;7.65;;;;;;;;;;5035637;28;20301;-70
2022/07/20 13:16:46;;;;;;;9.52;7.70;;;;;;;;;;5038078;28;20049;-70
2022/07/20 13:19:12;;;;;;;13.80;7.82;;;;;;;;;;5036948;28;20044;-70
2022/07/20 13:21:38;;;;;;;12.95;7.80;;;;;;;;;;5036922;28;20110;-69
2022/07/20 13:24:04;;;;;;;10.70;8.38;;;;;;;;;;5032999;28;20040;-70
2022/07/20 13:26:30;;;;;;;11.98;8.30;;;;;;;;;;5036929;28;20277;-69
2022/07/20 13:28:55;;;;;;;13.65;9.23;;;;;;;;;;5038585;28;20040;-69
2022/07/20 13:31:21;;;;;;;20.33;11.60;;;;;;;;;;5038784;28;20029;-69
2022/07/20 13:33:47;;;;;;;11.88;10.77;;;;;;;;;;5036941;28;20037;-69
2022/07/20 13:36:12;;;;;;;14.45;11.23;;;;;;;;;;5034977;28;20520;-69
2022/07/20 13:38:38;;;;;;;18.65;12.73;;;;;;;;;;5039038;28;20520;-69
2022/07/20 13:41:05;;;;;;;17.88;13.38;;;;;;;;;;5031720;28;20029;-69
2022/07/20 13:43:31;;;;;;;20.90;13.70;;;;;;;;;;5035464;28;20400;-69
2022/07/20 13:45:57;;;;;;;24.20;15.00;;;;;;;;;;5032854;28;20135;-68
2022/07/20 13:48:23;;;;;;;25.25;14.00;;;;;;;;;;5039626;28;20484;-69
2022/07/20 13:50:48;;;;;;;24.13;14.75;;;;;;;;;;5038867;28;20547;-68
2022/07/20 13:53:18;;;;;;;25.30;14.52;;;;;;;;;;5036767;28;20053;-68
2022/07/20 13:55:44;;;;;;;23.98;15.80;;;;;;;;;;5034554;28;20555;-69
2022/07/20 13:58:10;;;;;;;23.88;15.13;;;;;;;;;;5037828;28;20128;-68
2022/07/20 14:00:36;;;;;;;18.48;15.50;;;;;;;;;;5033995;28;20447;-68
2022/07/20 14:03:02;;;;;;;17.92;15.05;;;;;;;;;;5034972;28;20625;-68
2022/07/20 14:05:28;;;;;;;20.60;14.70;;;;;;;;;;5033239;28;20037;-69
2022/07/20 14:07:54;;;;;;;20.10;14.27;;;;;;;;;;5034356;28;20299;-69
2022/07/20 14:10:20;;;;;;;27.77;15.73;;;;;;;;;;5038687;28;20025;-68
2022/07/20 14:12:45;;;;;;;22.55;14.52;;;;;;;;;;5035487;28;20514;-68
2022/07/20 14:15:11;;;;;;;18.27;15.15;;;;;;;;;;5037619;28;20583;-69
2022/07/20 14:17:39;;;;;;;23.15;15.02;;;;;;;;;;5034739;28;20198;-68
2022/07/20 14:20:06;;;;;;;17.27;15.10;;;;;;;;;;5038583;28;20086;-68
2022/07/20 14:22:32;;;;;;;18.23;15.68;;;;;;;;;;5032064;28;20039;-69
2022/07/20 14:24:59;;;;;;;17.15;15.13;;;;;;;;;;5033786;28;20033;-69
2022/07/20 14:27:25;;;;;;;18.58;14.07;;;;;;;;;;5038403;28;20126;-68
2022/07/20 14:29:50;;;;;;;19.25;14.45;;;;;;;;;;5036778;28;20064;-68
2022/07/20 14:32:16;;;;;;;18.88;15.20;;;;;;;;;;5032946;28;20167;-69
2022/07/20 14:34:42;;;;;;;21.23;14.80;;;;;;;;;;5036898;28;20514;-69
2022/07/20 14:37:09;;;;;;;22.05;15.18;;;;;;;;;;5035157;28;20443;-69
2022/07/20 14:39:34;;;;;;;18.45;14.48;;;;;;;;;;5037126;28;20504;-69
2022/07/20 14:42:00;;;;;;;22.73;15.50;;;;;;;;;;5033118;28;20033;-69